Time;durP1;ratioP1;P1;durP2;ratioP2;P2;SDS_P1;SDS_P2;PMS_P1;PMS_P2;Temp;Humidity;BMP_temperature;BMP_pressure;BME280_temperature;BME280_humidity;BME280_pressure;Samples;Min_cycle;Max_cycle;Signal;HPM_P1;HPM_P2
2022/08/22 00:01:24;;;;;;;0.40;0.40;;;19.60;99.90;;;20.04;76.13;99946.38;4930063;28;20205;-66
2022/08/22 00:04:08;;;;;;;0.40;0.40;;;;;;;19.94;76.39;99920.81;4965925;28;20216;-66
2022/08/22 00:06:51;;;;;;;0.20;0.20;;;19.30;99.90;;;20.14;75.90;99942.41;4949618;28;20232;-66
2022/08/22 00:09:43;;;;;;;0.50;0.50;;;;;;;20.14;75.63;99931.66;4970350;28;20213;-66
2022/08/22 00:12:32;;;;;;;0.43;0.43;;;19.60;99.90;;;20.03;75.99;99929.41;4955042;28;20209;-66
2022/08/22 00:15:12;;;;;;;0.30;0.30;;;19.60;99.90;;;20.10;75.79;99919.31;4945321;28;20217;-66
2022/08/22 00:18:14;;;;;;;0.20;0.20;;;19.70;99.90;;;20.12;75.88;99921.00;4935647;28;20224;-66
2022/08/22 00:21:08;;;;;;;0.32;0.32;;;19.90;99.90;;;20.07;76.33;99919.41;4932291;28;20194;-66
2022/08/22 00:24:07;;;;;;;0.30;0.30;;;19.60;99.90;;;20.16;75.74;99924.44;4940252;28;20666;-66
2022/08/22 00:26:41;;;;;;;0.57;0.57;;;20.20;99.90;;;20.07;76.25;99911.38;4947712;28;20233;-66
2022/08/22 00:29:19;;;;;;;0.40;0.40;;;19.60;99.90;;;20.10;76.06;99917.50;4964826;28;20224;-66
2022/08/22 00:32:33;;;;;;;0.70;0.70;;;19.70;99.90;;;20.09;76.39;99917.56;4930065;29;20209;-66
2022/08/22 00:35:13;;;;;;;0.50;0.50;;;19.60;99.90;;;19.99;76.63;99919.72;4935675;28;20206;-66
2022/08/22 00:37:52;;;;;;;0.40;0.40;;;19.60;99.90;;;20.02;76.62;99919.59;4967065;28;20208;-66
2022/08/22 00:40:46;;;;;;;0.70;0.70;;;;;;;20.12;76.33;99925.47;4950031;28;20692;-66
2022/08/22 00:44:10;;;;;;;0.77;0.70;;;19.90;99.90;;;20.06;77.11;99926.59;4928128;28;20216;-66
2022/08/22 00:46:59;;;;;;;0.80;0.70;;;19.60;99.90;;;19.95;77.54;99927.94;4932641;28;20231;-66
2022/08/22 00:50:14;;;;;;;0.60;0.60;;;19.70;99.90;;;19.93;77.43;99914.56;4923731;28;20243;-66
2022/08/22 00:52:57;;;;;;;1.20;1.00;;;19.60;99.90;;;20.00;77.38;99923.25;4944542;28;20969;-66
2022/08/22 00:56:07;;;;;;;1.88;1.40;;;19.60;99.90;;;20.02;76.71;99919.59;4946707;28;20240;-65
2022/08/22 00:59:20;;;;;;;1.48;1.20;;;19.60;99.90;;;19.95;77.22;99912.69;4928783;28;20217;-66
2022/08/22 01:02:35;;;;;;;1.10;0.98;;;19.70;99.90;;;19.94;77.74;99923.50;4911926;28;20232;-66
2022/08/22 01:05:45;;;;;;;0.80;0.70;;;19.70;99.90;;;19.98;77.45;99914.41;4944215;28;20213;-65
2022/08/22 01:08:35;;;;;;;0.40;0.40;;;19.60;99.90;;;19.97;77.30;99912.66;4966533;28;20209;-66
2022/08/22 01:11:40;;;;;;;0.60;0.60;;;19.90;99.90;;;19.90;77.83;99912.00;4921127;28;20241;-65
2022/08/22 01:14:33;;;;;;;0.95;0.90;;;19.50;99.90;;;19.81;78.39;99907.84;4947083;28;20209;-66
2022/08/22 01:17:58;;;;;;;0.47;0.47;;;19.50;99.90;;;19.84;78.48;99914.91;4950366;28;20260;-66
2022/08/22 01:21:18;;;;;;;0.75;0.70;;;20.00;99.90;;;19.79;78.38;99904.34;4949081;28;20201;-66
2022/08/22 01:24:21;;;;;;;0.70;0.70;;;19.70;99.90;;;19.83;78.61;99906.91;4929438;28;20206;-66
2022/08/22 01:26:56;;;;;;;0.70;0.70;;;19.40;99.90;;;19.76;78.97;99899.09;4975253;28;20233;-66
2022/08/22 01:30:11;;;;;;;0.60;0.60;;;19.40;99.90;;;19.70;79.49;99904.69;4948571;28;20201;-66
2022/08/22 01:33:39;;;;;;;0.60;0.60;;;19.40;99.90;;;19.68;79.89;99903.00;4964758;28;20205;-66
2022/08/22 01:37:10;;;;;;;0.70;0.70;;;19.30;99.90;;;19.66;80.54;99911.09;4935807;28;20229;-66
2022/08/22 01:39:44;;;;;;;1.13;1.00;;;;;;;19.62;79.87;99896.06;4874620;29;20223;-66
2022/08/22 01:42:52;;;;;;;0.70;0.68;;;19.30;99.90;;;19.63;80.24;99902.28;4880637;29;20297;-66
2022/08/22 01:45:49;;;;;;;1.63;1.20;;;18.70;99.90;;;19.65;80.13;99900.44;4941372;28;20225;-66
2022/08/22 01:49:10;;;;;;;1.20;1.00;;;19.10;99.90;;;19.65;79.97;99901.31;4950142;28;20213;-66
2022/08/22 01:51:57;;;;;;;1.45;1.17;;;19.30;99.90;;;19.60;80.34;99897.03;4940115;28;20226;-66
2022/08/22 01:55:06;;;;;;;1.15;0.98;;;19.20;99.90;;;19.61;79.95;99898.78;4950847;28;20201;-66
2022/08/22 01:57:57;;;;;;;1.00;0.90;;;19.20;99.90;;;19.62;79.93;99898.72;4936908;28;20201;-66
2022/08/22 02:00:49;;;;;;;0.82;0.82;;;19.20;99.90;;;19.62;80.92;99900.53;4961270;28;20216;-66
2022/08/22 02:03:57;;;;;;;0.60;0.60;;;19.20;99.90;;;19.53;80.62;99895.50;4929665;28;20213;-66
2022/08/22 02:07:12;;;;;;;0.73;0.70;;;19.40;99.90;;;19.47;80.86;99899.22;4923180;28;20239;-66
2022/08/22 02:09:47;;;;;;;1.20;1.08;;;;;;;19.49;80.82;99898.22;4943880;28;20204;-65
2022/08/22 02:12:40;;;;;;;0.73;0.70;;;19.50;99.90;;;19.46;80.77;99898.34;4941103;28;20235;-66
2022/08/22 02:15:25;;;;;;;0.68;0.60;;;19.10;99.90;;;19.43;81.15;99898.44;4954927;28;20209;-66
2022/08/22 02:18:05;;;;;;;0.60;0.60;;;19.30;99.90;;;19.33;82.18;99906.88;4943137;28;20205;-66
2022/08/22 02:21:14;;;;;;;0.80;0.80;;;19.10;99.90;;;19.27;81.91;99893.69;4921813;28;20205;-65
2022/08/22 02:24:03;;;;;;;0.80;0.80;;;19.00;99.90;;;19.21;82.32;99899.25;4929989;28;20205;-65
2022/08/22 02:26:53;;;;;;;0.60;0.60;;;18.90;99.90;;;19.21;82.27;99908.19;4930495;28;20696;-66
2022/08/22 02:29:34;;;;;;;0.40;0.40;;;18.80;99.90;;;19.16;82.42;99900.31;4928679;28;20204;-66
2022/08/22 02:32:40;;;;;;;0.65;0.65;;;18.80;99.90;;;19.08;83.50;99907.72;4945353;28;20237;-66
2022/08/22 02:35:11;;;;;;;0.73;0.60;;;18.90;99.90;;;19.10;82.91;99908.56;4961699;28;20209;-66
2022/08/22 02:37:54;;;;;;;0.70;0.70;;;18.80;99.90;;;19.08;83.11;99899.69;4953989;28;20197;-66
2022/08/22 02:41:09;;;;;;;0.70;0.70;;;18.70;99.90;;;18.96;83.67;99899.22;4947264;28;20201;-66
2022/08/22 02:43:43;;;;;;;0.60;0.60;;;;;;;18.99;83.42;99908.03;4954253;28;20205;-66
2022/08/22 02:46:48;;;;;;;0.38;0.38;;;18.60;99.90;;;18.92;83.93;99902.94;4930835;28;20614;-66
2022/08/22 02:49:35;;;;;;;0.80;0.77;;;18.60;99.90;;;18.89;83.75;99911.06;4957936;28;20208;-66
2022/08/22 02:52:43;;;;;;;0.50;0.50;;;18.60;99.90;;;18.79;84.43;99907.84;4941798;28;20228;-66
2022/08/22 02:55:45;;;;;;;0.32;0.25;;;18.50;99.90;;;18.76;84.74;99914.16;4951609;28;20201;-65
2022/08/22 02:58:43;;;;;;;0.40;0.40;;;18.50;99.90;;;18.78;84.39;99911.44;4955318;28;20209;-66
2022/08/22 03:01:41;;;;;;;0.65;0.65;;;18.40;99.90;;;18.72;84.41;99917.88;4936919;28;20205;-66
2022/08/22 03:04:30;;;;;;;0.52;0.52;;;18.60;99.90;;;18.69;84.62;99917.97;4964761;28;20221;-66
2022/08/22 03:07:10;;;;;;;0.60;0.60;;;17.50;99.90;;;18.61;84.96;99920.03;4951929;28;20230;-66
2022/08/22 03:10:11;;;;;;;0.40;0.40;;;18.30;99.90;;;18.58;85.45;99928.13;4941783;28;20231;-66
2022/08/22 03:13:18;;;;;;;0.60;0.60;;;17.90;99.90;;;18.44;86.23;99933.91;4930135;28;20244;-66
2022/08/22 03:16:06;;;;;;;0.52;0.52;;;18.20;99.90;;;18.44;86.14;99935.69;4936629;28;20225;-66
2022/08/22 03:18:57;;;;;;;0.98;0.90;;;18.20;99.90;;;18.40;86.78;99956.34;4952069;28;20659;-65
2022/08/22 03:21:42;;;;;;;1.10;1.00;;;18.50;99.90;;;18.28;87.75;99956.72;4936718;28;20209;-65
2022/08/22 03:24:28;;;;;;;1.33;1.00;;;18.10;99.90;;;18.30;88.03;99980.75;4937876;28;20246;-66
2022/08/22 03:27:17;;;;;;;1.95;1.50;;;18.00;99.90;;;18.18;87.43;99965.91;4943064;28;20228;-66
2022/08/22 03:30:06;;;;;;;1.52;1.20;;;20.00;99.90;;;18.27;87.21;99976.38;4952062;28;20231;-66
2022/08/22 03:33:12;;;;;;;2.10;1.42;;;18.20;99.90;;;18.22;87.43;99981.84;4936277;28;20244;-66
2022/08/22 03:35:46;;;;;;;1.83;1.30;;;18.20;99.90;;;18.20;87.60;99994.41;4939054;28;20235;-66
2022/08/22 03:38:20;;;;;;;2.42;1.58;;;;;;;18.15;87.40;99995.44;4957279;28;20205;-66
2022/08/22 03:41:28;;;;;;;1.33;1.00;;;18.20;99.90;;;18.17;88.43;100002.50;4921241;28;20213;-66
2022/08/22 03:44:21;;;;;;;0.60;0.60;;;17.90;99.90;;;18.14;88.38;100009.72;4948087;28;20208;-66
2022/08/22 03:47:29;;;;;;;0.50;0.50;;;17.50;99.90;;;18.10;87.35;100014.28;4939878;28;20233;-66
2022/08/22 03:50:47;;;;;;;0.88;0.82;;;18.10;99.90;;;18.04;89.09;100026.97;4951991;28;20665;-66
2022/08/22 03:53:57;;;;;;;0.80;0.80;;;17.80;99.90;;;17.96;88.68;100035.22;4931254;28;20235;-66
2022/08/22 03:57:08;;;;;;;0.60;0.60;;;17.70;99.90;;;17.65;91.15;100040.47;4961203;28;20237;-66
2022/08/22 03:59:42;;;;;;;0.60;0.60;;;;;;;17.41;92.73;100050.00;4942624;28;20201;-66
2022/08/22 04:02:20;;;;;;;0.80;0.80;;;17.40;99.90;;;17.36;94.00;100078.63;4950506;28;20209;-66
2022/08/22 04:05:35;;;;;;;0.57;0.40;;;17.20;99.90;;;17.30;95.31;100091.25;4967750;28;20201;-66
2022/08/22 04:08:51;;;;;;;1.00;0.90;;;17.40;99.90;;;17.31;96.15;100128.66;4920451;28;20225;-66
2022/08/22 04:12:00;;;;;;;0.98;0.88;;;17.40;99.90;;;17.33;95.68;100136.63;4949918;28;20701;-66
2022/08/22 04:15:26;;;;;;;1.00;0.90;;;17.50;99.90;;;17.33;96.11;100158.00;4952911;28;20681;-66
2022/08/22 04:18:33;;;;;;;1.15;1.00;;;17.30;99.90;;;17.41;95.24;100170.28;4939960;28;20220;-66
2022/08/22 04:22:01;;;;;;;1.08;0.98;;;17.20;99.90;;;17.56;93.51;100187.75;4972886;28;20212;-66
2022/08/22 04:24:35;;;;;;;1.38;1.20;;;17.70;99.90;;;17.58;92.38;100173.44;4956322;28;20212;-66
2022/08/22 04:27:17;;;;;;;2.13;1.42;;;17.40;99.90;;;17.63;91.94;100173.34;4922914;28;20247;-66
2022/08/22 04:30:09;;;;;;;2.33;1.67;;;17.60;99.90;;;17.60;92.03;100176.06;4965916;28;20673;-66
2022/08/22 04:32:48;;;;;;;2.40;1.60;;;17.40;99.90;;;17.61;91.85;100183.19;4950871;28;20225;-66
2022/08/22 04:35:24;;;;;;;2.33;1.65;;;17.40;99.90;;;17.62;92.39;100189.41;4931707;28;20225;-66
2022/08/22 04:38:11;;;;;;;1.27;0.93;;;17.30;99.90;;;17.53;92.16;100187.84;4940718;28;20212;-66
2022/08/22 04:41:02;;;;;;;1.20;1.02;;;17.40;99.90;;;17.60;92.45;100195.69;4935865;28;20209;-66
2022/08/22 04:44:00;;;;;;;2.30;1.65;;;17.50;99.90;;;17.62;91.22;100201.00;4950067;28;20214;-66
2022/08/22 04:46:44;;;;;;;1.95;1.45;;;17.40;99.90;;;17.53;93.94;100211.91;4929383;28;20321;-66
2022/08/22 04:49:18;;;;;;;2.15;1.48;;;17.30;99.90;;;17.44;95.52;100231.69;4942953;28;20220;-66
2022/08/22 04:51:56;;;;;;;1.25;1.00;;;17.40;99.90;;;17.37;96.56;100242.56;4951485;28;20221;-66
2022/08/22 04:55:18;;;;;;;0.80;0.80;;;17.30;99.90;;;17.29;96.71;100242.72;4925334;28;20198;-66
2022/08/22 04:57:52;;;;;;;0.40;0.40;;;;;;;17.15;97.47;100242.13;4915282;28;20214;-66
2022/08/22 05:00:20;;;;;;;0.40;0.40;;;;;;;17.15;97.48;100251.03;4959460;28;20217;-66
2022/08/22 05:02:55;;;;;;;0.10;0.10;;;17.20;99.90;;;17.19;99.59;100278.56;4942150;28;20212;-66
2022/08/22 05:05:30;;;;;;;0.10;0.10;;;17.20;99.90;;;17.13;100.00;100297.41;4940190;28;20225;-66
2022/08/22 05:08:02;;;;;;;0.20;0.20;;;17.20;99.90;;;17.27;98.03;100295.34;4945870;28;20223;-66
2022/08/22 05:10:41;;;;;;;0.10;0.10;;;17.20;99.90;;;17.40;96.89;100293.28;4927940;29;20213;-66
2022/08/22 05:13:23;;;;;;;0.10;0.10;;;17.20;99.90;;;17.32;97.22;100296.13;4918829;28;20217;-66
2022/08/22 05:15:58;;;;;;;0.20;0.20;;;17.30;99.90;;;17.35;97.49;100303.19;4914359;28;20236;-66
2022/08/22 05:18:34;;;;;;;0.10;0.10;;;17.20;99.90;;;17.22;99.16;100310.59;4946086;28;20701;-66
2022/08/22 05:21:07;;;;;;;0.10;0.10;;;17.20;99.90;;;17.20;98.79;100315.97;4950367;28;20239;-66
2022/08/22 05:23:54;;;;;;;0.10;0.10;;;17.10;99.90;;;17.28;98.57;100321.16;4932056;28;20200;-66
2022/08/22 05:26:22;;;;;;;0.20;0.20;;;;;;;17.36;99.19;100331.69;4917572;28;20317;-66
2022/08/22 05:28:57;;;;;;;0.20;0.20;;;17.60;99.90;;;17.34;99.89;100336.19;4933163;28;20217;-66
2022/08/22 05:31:52;;;;;;;0.20;0.20;;;17.20;99.90;;;17.30;100.00;100351.41;4949682;28;20212;-66
2022/08/22 05:34:28;;;;;;;0.10;0.10;;;17.20;99.90;;;17.29;100.00;100349.63;4967089;28;20216;-66
2022/08/22 05:37:09;;;;;;;0.10;0.10;;;;;;;17.32;99.55;100343.34;4946769;28;20225;-66
2022/08/22 05:39:45;;;;;;;0.20;0.20;;;17.20;99.90;;;17.46;97.38;100344.84;4956148;28;20209;-66
2022/08/22 05:42:33;;;;;;;0.20;0.20;;;17.20;99.90;;;17.67;94.92;100338.19;4932369;28;20209;-66
2022/08/22 05:45:05;;;;;;;0.20;0.20;;;17.40;99.90;;;17.73;94.15;100327.34;4941662;28;20213;-66
2022/08/22 05:47:46;;;;;;;0.10;0.10;;;17.50;99.90;;;17.73;94.89;100323.81;4916913;28;20204;-66
2022/08/22 05:50:35;;;;;;;0.20;0.20;;;17.50;99.90;;;17.75;95.55;100338.03;4943991;28;20208;-66
2022/08/22 05:53:10;;;;;;;0.10;0.10;;;17.90;99.90;;;17.78;94.02;100329.94;4932666;28;20225;-66
2022/08/22 05:55:38;;;;;;;0.10;0.10;;;;;;;17.88;93.03;100335.03;4917413;28;20684;-66
2022/08/22 05:58:38;;;;;;;0.20;0.20;;;17.50;99.90;;;17.88;93.71;100331.47;4951077;28;20213;-66
2022/08/22 06:01:30;;;;;;;0.10;0.10;;;17.60;99.90;;;17.87;93.03;100329.72;4957248;28;20585;-66
2022/08/22 06:04:30;;;;;;;0.10;0.10;;;17.90;99.90;;;18.07;92.41;100335.50;4918005;28;20216;-66
2022/08/22 06:07:22;;;;;;;0.13;0.13;;;17.80;99.90;;;18.05;92.59;100325.75;4904765;28;20240;-66
2022/08/22 06:10:06;;;;;;;0.30;0.30;;;17.80;99.90;;;18.05;91.80;100331.97;4936178;28;20208;-66
2022/08/22 06:13:08;;;;;;;0.20;0.20;;;18.20;99.90;;;18.06;93.76;100349.78;4951656;28;20229;-66
2022/08/22 06:15:51;;;;;;;0.10;0.10;;;18.00;99.90;;;18.26;91.51;100351.16;4935936;28;20220;-66
2022/08/22 06:18:24;;;;;;;0.10;0.10;;;17.90;99.90;;;18.38;91.59;100351.75;4968013;28;20212;-66
2022/08/22 06:21:07;;;;;;;0.20;0.20;;;18.00;99.90;;;18.44;92.22;100356.94;4936520;28;20208;-66
2022/08/22 06:23:51;;;;;;;0.10;0.10;;;18.00;99.90;;;18.62;90.94;100360.13;4938805;28;20220;-66
2022/08/22 06:26:20;;;;;;;0.10;0.10;;;;;;;18.57;91.43;100356.66;4955305;28;20231;-66
2022/08/22 06:28:52;;;;;;;0.10;0.10;;;18.20;99.90;;;18.70;91.34;100368.84;4956017;28;20209;-66
2022/08/22 06:31:35;;;;;;;0.10;0.10;;;18.30;99.90;;;18.78;90.79;100372.22;4924249;28;20201;-66
2022/08/22 06:34:15;;;;;;;0.10;0.10;;;18.60;99.90;;;18.84;90.16;100364.00;4955930;28;20610;-66
2022/08/22 06:36:47;;;;;;;0.20;0.20;;;18.40;99.90;;;19.03;89.52;100373.31;4935778;28;20594;-66
2022/08/22 06:39:32;;;;;;;0.15;0.15;;;18.40;99.90;;;19.15;89.72;100380.16;4938886;28;20205;-66
2022/08/22 06:42:13;;;;;;;0.00;0.00;;;18.20;99.90;;;19.20;90.68;100386.28;4955754;28;20212;-66
2022/08/22 06:44:56;;;;;;;0.10;0.10;;;19.10;99.90;;;19.29;89.71;100391.38;4923952;28;20220;-66
2022/08/22 06:47:28;;;;;;;0.10;0.10;;;18.80;99.90;;;19.42;89.24;100384.75;4939736;28;20209;-66
2022/08/22 06:50:20;;;;;;;0.20;0.20;;;19.00;99.90;;;19.60;86.47;100356.59;4937636;28;20213;-66
2022/08/22 06:53:07;;;;;;;0.10;0.10;;;;;;;19.59;85.91;100340.56;4951603;29;20741;-66
2022/08/22 06:55:40;;;;;;;0.10;0.10;;;19.10;99.90;;;19.74;85.39;100349.03;4947959;28;20244;-66
2022/08/22 06:58:18;;;;;;;0.10;0.10;;;19.30;99.90;;;19.84;85.41;100346.06;4946182;28;20214;-66
2022/08/22 07:00:54;;;;;;;0.10;0.10;;;19.40;99.90;;;20.09;84.80;100357.81;4946273;28;20217;-66
2022/08/22 07:03:49;;;;;;;0.10;0.10;;;19.50;99.90;;;20.17;83.09;100333.41;4911778;28;20321;-66
2022/08/22 07:06:27;;;;;;;0.10;0.10;;;19.70;99.90;;;20.28;83.59;100334.81;4945496;28;20237;-66
2022/08/22 07:08:55;;;;;;;0.10;0.10;;;;;;;20.36;84.00;100338.13;4938416;28;20252;-66
2022/08/22 07:11:38;;;;;;;0.38;0.38;;;19.90;99.90;;;20.60;82.16;100324.84;4958113;28;20200;-66
2022/08/22 07:14:10;;;;;;;0.15;0.15;;;20.30;99.90;;;20.93;82.19;100334.47;4948526;28;20237;-66
2022/08/22 07:16:50;;;;;;;0.10;0.10;;;20.60;99.90;;;20.98;81.38;100307.41;4935065;28;20237;-67
2022/08/22 07:19:45;;;;;;;0.10;0.10;;;20.60;99.90;;;20.98;80.86;100294.84;4954013;28;20201;-66
2022/08/22 07:22:36;;;;;;;0.10;0.10;;;20.70;99.90;;;21.32;80.61;100307.97;4951281;28;20581;-66
2022/08/22 07:25:12;;;;;;;0.20;0.10;;;20.80;99.90;;;21.28;78.80;100274.06;4915852;28;20206;-66
2022/08/22 07:27:52;;;;;;;0.10;0.10;;;20.70;99.90;;;21.47;79.39;100278.75;4919137;28;20557;-66
2022/08/22 07:30:22;;;;;;;0.20;0.20;;;21.40;99.90;;;21.87;78.50;100283.44;4943333;28;20216;-66
2022/08/22 07:33:00;;;;;;;0.10;0.10;;;21.50;99.90;;;21.95;77.42;100262.47;4950544;28;20219;-66
2022/08/22 07:35:58;;;;;;;0.10;0.10;;;21.80;99.90;;;22.07;79.02;100282.69;4934778;28;20244;-66
2022/08/22 07:38:42;;;;;;;0.10;0.10;;;21.60;99.90;;;21.77;77.72;100226.41;4938272;28;20201;-66
2022/08/22 07:41:15;;;;;;;0.10;0.10;;;;;;;22.46;79.35;100282.88;4949455;28;20209;-66
2022/08/22 07:43:52;;;;;;;0.10;0.10;;;22.40;99.90;;;22.66;77.75;100262.22;4947144;28;20206;-66
2022/08/22 07:46:35;;;;;;;0.10;0.10;;;23.20;99.90;;;22.92;75.15;100225.19;4945426;28;20236;-66
2022/08/22 07:49:15;;;;;;;1.13;1.10;;;22.70;99.90;;;23.41;76.73;100256.19;4949311;28;20213;-66
2022/08/22 07:51:51;;;;;;;0.03;0.03;;;23.20;99.90;;;23.11;74.78;100191.03;4937783;28;20208;-66
2022/08/22 07:54:51;;;;;;;0.17;0.17;;;23.10;99.90;;;23.53;75.23;100225.06;4933574;28;20227;-66
2022/08/22 07:57:27;;;;;;;0.10;0.10;;;;;;;22.98;73.39;100127.81;4924920;28;20216;-66
2022/08/22 07:59:59;;;;;;;0.10;0.10;;;23.30;99.90;;;23.06;73.25;100125.63;4964308;28;20211;-66
2022/08/22 08:02:28;;;;;;;0.10;0.10;;;23.20;99.90;;;22.98;72.09;100093.63;4952735;28;20212;-66
2022/08/22 08:04:59;;;;;;;0.10;0.10;;;23.50;99.90;;;23.66;74.23;100160.59;4940548;28;20216;-65
2022/08/22 08:07:30;;;;;;;0.10;0.10;;;24.10;99.90;;;24.39;73.44;100182.09;4913790;28;20208;-66
2022/08/22 08:10:13;;;;;;;0.20;0.20;;;24.40;99.90;;;24.01;71.99;100096.69;4931390;28;20209;-66
2022/08/22 08:12:54;;;;;;;0.10;0.10;;;24.20;99.90;;;23.85;72.80;100080.41;4917819;28;20216;-66
2022/08/22 08:15:34;;;;;;;0.10;0.10;;;24.80;99.90;;;23.84;72.20;100059.75;4928359;28;20240;-66
2022/08/22 08:18:10;;;;;;;0.00;0.00;;;24.40;99.90;;;24.18;71.65;100077.78;4935182;28;20208;-66
2022/08/22 08:20:39;;;;;;;0.82;0.82;;;;;;;24.62;72.61;100107.88;4933693;28;20235;-66
2022/08/22 08:23:09;;;;;;;0.20;0.20;;;24.80;99.90;;;24.37;69.46;100026.38;4948070;28;20204;-66
2022/08/22 08:25:54;;;;;;;0.03;0.03;;;24.60;99.90;;;24.00;70.09;99968.88;4933386;28;20389;-66
2022/08/22 08:28:35;;;;;;;0.10;0.10;;;25.00;99.90;;;24.66;69.95;100024.75;4935926;28;20213;-66
2022/08/22 08:31:34;;;;;;;0.00;0.00;;;25.10;99.90;;;25.23;69.18;100041.44;4932766;28;20209;-66
2022/08/22 08:34:08;;;;;;;0.00;0.00;;;25.30;99.90;;;24.95;68.65;99991.56;4937513;28;20220;-66
2022/08/22 08:37:11;;;;;;;0.03;0.03;;;25.70;99.90;;;25.05;68.52;99973.88;4950045;28;20219;-66
2022/08/22 08:39:49;;;;;;;0.00;0.00;;;26.30;99.90;;;25.58;67.75;99994.22;4945090;28;20205;-66
2022/08/22 08:43:26;;;;;;;0.05;0.05;;;26.70;99.90;;;25.13;68.67;99894.97;4946776;28;20230;-66
2022/08/22 08:46:15;;;;;;;0.55;0.55;;;26.10;99.90;;;24.72;69.61;99862.22;4875217;29;20241;-66
2022/08/22 08:49:17;;;;;;;0.10;0.10;;;25.40;99.90;;;24.32;70.76;99832.03;4935955;28;20205;-66
2022/08/22 08:52:09;;;;;;;0.10;0.10;;;;;;;25.00;70.13;99910.19;4944667;28;20200;-66
2022/08/22 08:55:07;;;;;;;0.03;0.03;;;26.30;99.90;;;25.16;69.06;99884.84;4943080;28;20224;-66
2022/08/22 08:58:34;;;;;;;0.00;0.00;;;25.60;99.90;;;24.65;69.35;99825.66;4951414;28;20586;-66
2022/08/22 09:01:40;;;;;;;0.00;0.00;;;25.50;99.90;;;25.18;68.90;99874.78;4926398;28;20708;-66
2022/08/22 09:05:06;;;;;;;0.00;0.00;;;26.20;99.90;;;25.10;68.64;99843.75;4918049;28;20220;-67
2022/08/22 09:07:58;;;;;;;0.10;0.10;;;25.30;99.90;;;25.05;69.42;99843.16;4963549;28;20212;-67
2022/08/22 09:11:11;;;;;;;0.03;0.03;;;25.10;99.90;;;25.13;70.24;99851.69;4925578;28;20220;-67
2022/08/22 09:14:07;;;;;;;0.10;0.10;;;25.50;99.90;;;25.97;70.54;99922.34;4941117;28;20219;-67
2022/08/22 09:16:47;;;;;;;0.00;0.00;;;25.90;99.90;;;25.41;68.86;99838.22;4943182;28;20243;-67
2022/08/22 09:20:11;;;;;;;0.00;0.00;;;25.50;99.90;;;25.57;67.85;99840.84;4925771;28;20212;-67
2022/08/22 09:22:47;;;;;;;0.10;0.10;;;25.80;99.90;;;26.18;67.85;99877.66;4947254;28;20212;-67
2022/08/22 09:26:18;;;;;;;0.00;0.00;;;26.80;99.90;;;26.44;68.68;99882.31;4959243;28;20229;-67
2022/08/22 09:29:33;;;;;;;0.00;0.00;;;26.80;99.90;;;26.16;66.70;99817.28;4931195;28;20208;-67
2022/08/22 09:32:41;;;;;;;0.05;0.05;;;26.60;99.90;;;26.13;68.05;99807.50;4939074;28;20204;-67
2022/08/22 09:35:54;;;;;;;0.10;0.00;;;26.60;99.90;;;26.97;68.08;99875.19;4940229;28;20240;-67
2022/08/22 09:38:55;;;;;;;0.00;0.00;;;26.40;99.90;;;25.76;67.52;99718.72;4936600;28;20200;-67
2022/08/22 09:41:42;;;;;;;0.95;0.63;;;;;;;26.42;67.83;99789.34;4941241;28;20214;-67
2022/08/22 09:44:36;;;;;;;0.80;0.52;;;26.80;99.90;;;26.57;66.00;99756.75;4929807;28;20216;-67
2022/08/22 09:47:53;;;;;;;0.00;0.00;;;27.20;99.90;;;26.49;65.03;99711.19;4948200;28;20239;-67
2022/08/22 09:51:10;;;;;;;0.00;0.00;;;27.90;99.90;;;28.09;63.67;99781.31;4907160;29;20206;-67
2022/08/22 09:54:34;;;;;;;0.10;0.10;;;27.20;99.90;;;26.90;64.13;99640.50;4946859;28;20205;-67
2022/08/22 09:57:17;;;;;;;0.00;0.00;;;27.20;99.90;;;27.14;64.42;99658.75;4931377;28;20228;-67
2022/08/22 10:00:13;;;;;;;0.35;0.35;;;28.20;99.90;;;27.87;63.90;99708.63;4932237;28;20212;-67
2022/08/22 10:03:00;;;;;;;0.10;0.10;;;29.00;99.90;;;27.67;63.82;99653.06;4949631;28;20669;-67
2022/08/22 10:05:44;;;;;;;0.10;0.10;;;28.40;99.90;;;28.31;64.65;99724.38;4948091;28;20320;-67
2022/08/22 10:08:37;;;;;;;0.20;0.20;;;29.20;99.90;;;28.28;63.20;99672.94;4952613;28;20223;-68
2022/08/22 10:11:24;;;;;;;0.43;0.30;;;27.60;99.90;;;27.55;62.08;99552.56;4921674;28;20215;-68
2022/08/22 10:14:20;;;;;;;0.30;0.30;;;28.20;99.90;;;27.96;63.41;99595.66;4950388;28;20220;-68
2022/08/22 10:17:25;;;;;;;0.25;0.25;;;28.80;99.90;;;27.90;60.96;99526.34;4947774;28;20740;-67
2022/08/22 10:20:19;;;;;;;0.00;0.00;;;29.20;99.90;;;28.26;61.04;99558.00;4965923;28;20208;-68
2022/08/22 10:23:13;;;;;;;0.00;0.00;;;29.90;99.90;;;28.66;60.23;99553.03;4965526;28;20212;-68
2022/08/22 10:25:53;;;;;;;0.00;0.00;;;29.50;99.60;;;28.41;60.13;99489.78;4934325;28;20243;-68
2022/08/22 10:28:42;;;;;;;0.00;0.00;;;29.10;99.90;;;29.10;59.45;99554.06;4921099;28;20208;-68
2022/08/22 10:31:48;;;;;;;0.10;0.10;;;30.70;99.10;;;29.08;58.75;99503.44;4966087;28;20213;-68
2022/08/22 10:35:26;;;;;;;0.10;0.10;;;30.10;97.70;;;28.65;58.43;99418.00;4945001;28;20240;-68
2022/08/22 10:37:56;;;;;;;0.40;0.40;;;29.50;99.90;;;28.71;59.03;99421.19;4929389;28;20208;-68
2022/08/22 10:40:53;;;;;;;0.73;0.60;;;30.80;98.90;;;29.61;59.00;99501.72;4950962;28;20227;-68
2022/08/22 10:44:07;;;;;;;0.40;0.40;;;30.90;99.90;;;29.43;57.67;99436.03;4948514;28;20216;-68
2022/08/22 10:47:11;;;;;;;0.30;0.30;;;31.40;96.60;;;30.73;57.94;99523.81;4963154;28;20233;-68
2022/08/22 10:50:03;;;;;;;0.00;0.00;;;32.30;94.80;;;30.16;57.29;99409.78;4952067;28;20216;-68
2022/08/22 10:56:12;;;;;;;0.00;0.00;;;33.70;93.90;;;31.01;57.08;99442.16;4965346;28;20232;-68
2022/08/22 10:58:55;;;;;;;0.17;0.17;;;32.30;91.90;;;29.87;57.39;99308.72;4949562;28;20197;-68
2022/08/22 11:01:36;;;;;;;0.10;0.10;;;30.50;92.40;;;29.68;59.34;99324.97;4953692;28;20200;-68
2022/08/22 11:05:03;;;;;;;0.00;0.00;;;31.10;92.00;;;29.63;55.86;99258.09;4954187;28;20204;-68
2022/08/22 11:08:09;;;;;;;0.05;0.05;;;31.50;91.40;;;30.88;53.68;99301.34;4913493;28;20197;-67
2022/08/22 11:11:12;;;;;;;0.15;0.15;;;33.60;92.90;;;31.39;54.09;99327.53;4939160;28;20216;-68
2022/08/22 11:14:12;;;;;;;0.25;0.25;;;33.40;93.80;;;33.34;55.08;99430.69;4971283;28;20201;-68
2022/08/22 11:16:56;;;;;;;0.25;0.25;;;32.00;79.70;;;29.75;53.38;99105.44;4942567;28;20224;-68
2022/08/22 11:20:00;;;;;;;0.00;0.00;;;32.20;84.70;;;32.00;53.15;99299.78;4922431;28;20208;-68
2022/08/22 11:22:37;;;;;;;0.10;0.10;;;33.60;81.80;;;31.26;54.06;99168.56;4934603;28;20245;-68
2022/08/22 11:25:13;;;;;;;0.20;0.17;;;33.50;83.90;;;31.30;52.59;99161.78;4966873;28;20212;-68
2022/08/22 11:28:17;;;;;;;0.20;0.20;;;;;;;31.13;54.05;99154.31;4952085;28;20205;-68
2022/08/22 11:31:39;;;;;;;0.30;0.30;;;33.10;81.70;;;31.47;52.22;99144.63;4953506;28;20200;-68
2022/08/22 11:34:35;;;;;;;0.17;0.17;;;;;;;30.44;51.95;99015.38;4952583;28;20571;-67
2022/08/22 11:37:18;;;;;;;0.10;0.10;;;;;;;31.39;53.78;99141.78;4970266;28;20224;-68
2022/08/22 11:40:22;;;;;;;0.00;0.00;;;32.30;80.40;;;31.25;51.65;99084.03;4949081;28;20229;-68
2022/08/22 11:43:18;;;;;;;0.00;0.00;;;32.00;78.30;;;30.93;52.29;99035.25;4951481;28;20220;-68
2022/08/22 11:45:56;;;;;;;0.10;0.10;;;31.80;79.40;;;31.64;53.60;99110.16;4970252;28;20252;-68
2022/08/22 11:48:45;;;;;;;0.15;0.15;;;33.40;86.90;;;32.69;51.54;99178.88;4938003;28;20205;-68
2022/08/22 11:52:16;;;;;;;0.00;0.00;;;32.60;81.00;;;31.59;55.31;99090.63;4965960;28;20660;-68
2022/08/22 11:55:26;;;;;;;0.10;0.10;;;32.00;81.40;;;31.13;53.06;99025.97;4965790;28;20203;-68
2022/08/22 11:58:24;;;;;;;0.00;0.00;;;31.30;78.90;;;31.15;51.38;98991.19;4923878;28;20197;-68
2022/08/22 12:01:16;;;;;;;0.10;0.10;;;33.00;75.80;;;31.52;49.67;98977.50;4923710;28;20207;-68
2022/08/22 12:04:06;;;;;;;0.10;0.10;;;33.00;76.70;;;31.37;50.82;98963.50;4954817;28;20580;-68
2022/08/22 12:06:46;;;;;;;0.00;0.00;;;;;;;31.02;52.17;98923.28;4926031;28;20228;-68
2022/08/22 12:09:26;;;;;;;0.00;0.00;;;31.80;71.70;;;31.12;48.53;98882.25;4953385;28;20212;-68